createdAt,value
2022-12-07T00:00:52.410Z,32.00
2022-12-07T00:01:52.426Z,32.00
2022-12-07T00:02:52.357Z,32.20
2022-12-07T00:03:52.350Z,32.30
2022-12-07T00:04:52.244Z,32.40
2022-12-07T00:05:52.189Z,32.00
2022-12-07T00:06:52.145Z,32.30
2022-12-07T00:07:52.142Z,32.30
2022-12-07T00:08:52.060Z,32.90
2022-12-07T00:09:52.019Z,33.90
2022-12-07T00:10:51.967Z,34.40
2022-12-07T00:11:51.920Z,33.80
2022-12-07T00:12:51.881Z,31.90
2022-12-07T00:13:51.835Z,32.20
2022-12-07T00:14:51.810Z,32.80
2022-12-07T00:15:51.746Z,32.40
2022-12-07T00:16:51.812Z,33.10
2022-12-07T00:17:51.660Z,33.30
2022-12-07T00:18:51.617Z,33.10
2022-12-07T00:19:51.572Z,34.20
2022-12-07T00:20:51.529Z,32.50
2022-12-07T00:21:51.509Z,32.70
2022-12-07T00:22:51.439Z,35.20
2022-12-07T00:23:51.407Z,33.40
2022-12-07T00:24:51.352Z,32.20
2022-12-07T00:25:51.308Z,33.90
2022-12-07T00:26:51.362Z,32.70
2022-12-07T00:27:51.232Z,34.50
2022-12-07T00:28:51.177Z,35.30
2022-12-07T00:29:51.132Z,34.50
2022-12-07T00:30:51.095Z,35.30
2022-12-07T00:31:51.104Z,36.50
2022-12-07T00:32:51.003Z,35.50
2022-12-07T00:33:50.963Z,34.80
2022-12-07T00:34:50.913Z,34.10
2022-12-07T00:35:50.868Z,34.50
2022-12-07T00:36:50.837Z,34.70
2022-12-07T00:37:50.780Z,35.60
2022-12-07T00:38:50.737Z,36.80
2022-12-07T00:39:50.691Z,34.90
2022-12-07T00:40:50.652Z,33.80
2022-12-07T00:41:50.605Z,35.20
2022-12-07T00:42:50.575Z,34.20
2022-12-07T00:43:50.519Z,34.90
2022-12-07T00:44:50.476Z,36.30
2022-12-07T00:45:50.468Z,36.30
2022-12-07T00:46:50.386Z,36.10
2022-12-07T00:47:50.339Z,36.10
2022-12-07T00:48:50.315Z,34.90
2022-12-07T00:49:50.249Z,37.90
2022-12-07T00:50:50.209Z,34.70
2022-12-07T00:51:50.167Z,34.80
2022-12-07T00:52:50.124Z,34.80
2022-12-07T00:53:50.076Z,34.40
2022-12-07T00:54:50.047Z,34.90
2022-12-07T00:55:49.986Z,35.30
2022-12-07T00:56:49.954Z,35.80
2022-12-07T00:57:49.903Z,34.80
2022-12-07T00:58:49.866Z,35.70
2022-12-07T00:59:49.812Z,35.40
2022-12-07T01:00:49.785Z,35.40
2022-12-07T01:01:49.818Z,35.00
2022-12-07T01:02:49.750Z,36.00
2022-12-07T01:03:49.692Z,34.50
2022-12-07T01:04:50.285Z,35.30
2022-12-07T01:05:49.551Z,35.90
2022-12-07T01:06:49.522Z,36.10
2022-12-07T01:07:49.496Z,34.80
2022-12-07T01:08:49.420Z,35.50
2022-12-07T01:09:49.376Z,34.60
2022-12-07T01:10:49.330Z,34.90
2022-12-07T01:11:49.286Z,34.50
2022-12-07T01:12:49.258Z,34.70
2022-12-07T01:13:49.197Z,35.20
2022-12-07T01:14:49.157Z,35.10
2022-12-07T01:15:49.110Z,35.60
2022-12-07T01:16:49.125Z,35.90
2022-12-07T01:17:49.026Z,35.40
2022-12-07T01:18:48.995Z,36.90
2022-12-07T01:19:48.963Z,35.50
2022-12-07T01:20:48.897Z,35.90
2022-12-07T01:21:48.847Z,36.40
2022-12-07T01:22:48.807Z,35.90
2022-12-07T01:23:48.759Z,37.30
2022-12-07T01:24:48.719Z,36.50
2022-12-07T01:25:48.888Z,38.20
2022-12-07T01:26:48.647Z,35.70
2022-12-07T01:27:48.588Z,37.00
2022-12-07T01:28:48.544Z,38.30
2022-12-07T01:29:48.494Z,37.50
2022-12-07T01:30:48.513Z,36.70
2022-12-07T01:31:48.419Z,38.00
2022-12-07T01:32:48.370Z,38.10
2022-12-07T01:33:48.338Z,37.80
2022-12-07T01:34:48.279Z,36.80
2022-12-07T01:35:48.231Z,37.60
2022-12-07T01:36:48.202Z,37.50
2022-12-07T01:37:48.145Z,38.50
2022-12-07T01:38:48.108Z,37.30
2022-12-07T01:39:48.059Z,38.00
2022-12-07T01:40:48.017Z,37.90
2022-12-07T01:41:47.977Z,37.70
2022-12-07T01:42:47.927Z,37.50
2022-12-07T01:43:47.881Z,38.10
2022-12-07T01:44:47.839Z,38.30
2022-12-07T01:45:47.863Z,37.60
2022-12-07T01:46:47.767Z,38.30
2022-12-07T01:47:47.711Z,38.90
2022-12-07T01:48:47.671Z,37.80
2022-12-07T01:49:47.633Z,38.60
2022-12-07T01:50:47.576Z,37.80
2022-12-07T01:51:47.536Z,38.20
2022-12-07T01:52:47.499Z,38.50
2022-12-07T01:53:47.442Z,37.50
2022-12-07T01:54:47.398Z,38.50
2022-12-07T01:55:47.482Z,37.90
2022-12-07T01:56:47.317Z,37.90
2022-12-07T01:57:47.286Z,37.10
2022-12-07T01:58:47.299Z,37.90
2022-12-07T01:59:47.178Z,38.40
2022-12-07T02:00:47.134Z,37.50
2022-12-07T02:01:47.140Z,38.60
2022-12-07T02:02:47.084Z,37.70
2022-12-07T02:03:47.010Z,38.00
2022-12-07T02:04:46.964Z,37.30
2022-12-07T02:05:46.916Z,37.10
2022-12-07T02:06:46.873Z,37.70
2022-12-07T02:07:46.870Z,38.90
2022-12-07T02:08:46.785Z,38.60
2022-12-07T02:09:46.752Z,38.20
2022-12-07T02:10:46.698Z,36.70
2022-12-07T02:11:46.649Z,37.80
2022-12-07T02:12:46.611Z,38.30
2022-12-07T02:13:46.561Z,36.10
2022-12-07T02:14:46.521Z,38.70
2022-12-07T02:15:46.509Z,37.30
2022-12-07T02:16:46.432Z,36.70
2022-12-07T02:17:46.388Z,37.10
2022-12-07T02:18:46.345Z,36.40
2022-12-07T02:19:46.298Z,38.20
2022-12-07T02:20:46.259Z,37.50
2022-12-07T02:21:46.223Z,37.30
2022-12-07T02:22:46.169Z,38.10
2022-12-07T02:23:46.128Z,36.90
2022-12-07T02:24:55.385Z,38.40
2022-12-07T02:25:46.036Z,36.80
2022-12-07T02:26:45.991Z,38.30
2022-12-07T02:27:45.977Z,38.00
2022-12-07T02:28:45.907Z,38.10
2022-12-07T02:29:45.865Z,38.00
2022-12-07T02:30:45.885Z,37.90
2022-12-07T02:31:45.774Z,38.90
2022-12-07T02:32:45.738Z,38.80
2022-12-07T02:33:45.695Z,37.80
2022-12-07T02:34:45.640Z,38.00
2022-12-07T02:35:45.595Z,36.30
2022-12-07T02:36:45.571Z,39.30
2022-12-07T02:37:45.508Z,39.80
2022-12-07T02:38:45.474Z,38.70
2022-12-07T02:39:45.421Z,38.80
2022-12-07T02:40:45.377Z,37.90
2022-12-07T02:41:45.334Z,40.00
2022-12-07T02:42:45.293Z,38.40
2022-12-07T02:43:45.261Z,40.70
2022-12-07T02:44:45.199Z,37.60
2022-12-07T02:45:45.157Z,39.20
2022-12-07T02:46:45.146Z,37.60
2022-12-07T02:47:45.066Z,39.30
2022-12-07T02:48:45.024Z,39.30
2022-12-07T02:49:44.994Z,40.10
2022-12-07T02:50:44.934Z,39.80
2022-12-07T02:51:44.893Z,40.90
2022-12-07T02:52:44.845Z,39.70
2022-12-07T02:53:44.809Z,39.70
2022-12-07T02:54:44.757Z,39.50
2022-12-07T02:55:44.728Z,38.80
2022-12-07T02:56:44.678Z,40.50
2022-12-07T02:57:44.628Z,39.80
2022-12-07T02:58:44.584Z,38.90
2022-12-07T02:59:44.548Z,38.80
2022-12-07T03:00:44.493Z,39.00
2022-12-07T03:01:44.503Z,39.60
2022-12-07T03:02:44.573Z,40.90
2022-12-07T03:03:44.370Z,39.20
2022-12-07T03:04:44.318Z,37.20
2022-12-07T03:05:44.276Z,38.60
2022-12-07T03:06:44.238Z,38.80
2022-12-07T03:07:44.264Z,38.70
2022-12-07T03:08:44.141Z,40.00
2022-12-07T03:09:44.100Z,39.30
2022-12-07T03:10:44.053Z,36.90
2022-12-07T03:11:44.026Z,39.90
2022-12-07T03:12:43.978Z,37.90
2022-12-07T03:13:43.933Z,39.00
2022-12-07T03:14:43.877Z,37.50
2022-12-07T03:15:43.888Z,38.20
2022-12-07T03:16:43.789Z,37.70
2022-12-07T03:17:43.760Z,37.40
2022-12-07T03:18:43.700Z,37.80
2022-12-07T03:19:43.661Z,37.50
2022-12-07T03:20:43.616Z,36.40
2022-12-07T03:21:43.572Z,37.60
2022-12-07T03:22:43.525Z,37.90
2022-12-07T03:23:43.494Z,36.90
2022-12-07T03:24:43.439Z,37.80
2022-12-07T03:25:43.403Z,38.20
2022-12-07T03:26:43.349Z,38.90
2022-12-07T03:27:43.309Z,37.00
2022-12-07T03:28:43.260Z,38.70
2022-12-07T03:29:43.231Z,37.40
2022-12-07T03:30:43.274Z,37.00
2022-12-07T03:31:43.189Z,38.20
2022-12-07T03:32:43.084Z,38.30
2022-12-07T03:33:43.044Z,37.60
2022-12-07T03:34:43.016Z,37.80
2022-12-07T03:35:42.955Z,38.20
2022-12-07T03:36:42.927Z,37.00
2022-12-07T03:37:42.875Z,36.80
2022-12-07T03:38:42.820Z,38.30
2022-12-07T03:39:42.780Z,37.90
2022-12-07T03:40:42.747Z,37.70
2022-12-07T03:41:45.417Z,37.20
2022-12-07T03:42:42.642Z,36.90
2022-12-07T03:43:42.605Z,37.50
2022-12-07T03:44:42.557Z,36.60
2022-12-07T03:45:42.515Z,37.90
2022-12-07T03:46:42.513Z,37.10
2022-12-07T03:47:42.427Z,36.00
2022-12-07T03:48:42.393Z,36.40
2022-12-07T03:49:42.336Z,36.20
2022-12-07T03:50:42.657Z,37.00
2022-12-07T03:51:42.251Z,35.40
2022-12-07T03:52:42.202Z,36.00
2022-12-07T03:53:42.173Z,36.00
2022-12-07T03:54:42.127Z,35.10
2022-12-07T03:55:42.072Z,35.20
2022-12-07T03:56:42.027Z,35.10
2022-12-07T03:57:41.987Z,35.60
2022-12-07T03:58:41.938Z,35.90
2022-12-07T03:59:41.897Z,36.90
2022-12-07T04:00:41.863Z,35.20
2022-12-07T04:01:41.873Z,35.90
2022-12-07T04:02:41.864Z,36.90
2022-12-07T04:03:41.719Z,35.80
2022-12-07T04:04:41.676Z,36.00
2022-12-07T04:05:41.631Z,36.00
2022-12-07T04:06:41.597Z,36.20
2022-12-07T04:07:41.600Z,36.20
2022-12-07T04:08:41.498Z,37.60
2022-12-07T04:09:41.455Z,37.00
2022-12-07T04:10:41.406Z,36.60
2022-12-07T04:11:41.369Z,37.70
2022-12-07T04:12:41.333Z,37.20
2022-12-07T04:13:41.280Z,36.70
2022-12-07T04:14:41.230Z,36.80
2022-12-07T04:15:41.207Z,36.50
2022-12-07T04:16:44.700Z,36.70
2022-12-07T04:17:41.105Z,38.00
2022-12-07T04:18:41.070Z,36.60
2022-12-07T04:19:41.013Z,37.50
2022-12-07T04:20:40.970Z,37.20
2022-12-07T04:21:40.936Z,36.80
2022-12-07T04:22:40.879Z,37.30
2022-12-07T04:23:40.840Z,37.20
2022-12-07T04:24:40.802Z,36.80
2022-12-07T04:25:40.750Z,35.60
2022-12-07T04:26:40.703Z,35.90
2022-12-07T04:27:40.664Z,35.40
2022-12-07T04:28:40.615Z,36.90
2022-12-07T04:29:40.576Z,36.50
2022-12-07T04:30:40.551Z,36.20
2022-12-07T04:31:40.550Z,35.70
2022-12-07T04:32:40.436Z,35.90
2022-12-07T04:33:40.395Z,35.60
2022-12-07T04:34:40.351Z,35.20
2022-12-07T04:35:40.313Z,36.20
2022-12-07T04:36:40.273Z,35.30
2022-12-07T04:37:40.224Z,35.30
2022-12-07T04:38:40.173Z,35.00
2022-12-07T04:39:40.129Z,33.80
2022-12-07T04:40:40.085Z,33.70
2022-12-07T04:41:40.044Z,33.80
2022-12-07T04:42:40.009Z,33.70
2022-12-07T04:43:39.957Z,34.60
2022-12-07T04:44:39.906Z,35.30
2022-12-07T04:45:39.866Z,34.00
2022-12-07T04:46:39.859Z,33.70
2022-12-07T04:47:39.790Z,33.30
2022-12-07T04:48:39.734Z,33.70
2022-12-07T04:49:39.701Z,32.60
2022-12-07T04:50:44.541Z,33.30
2022-12-07T04:51:39.611Z,34.20
2022-12-07T04:52:39.554Z,33.40
2022-12-07T04:53:39.522Z,34.00
2022-12-07T04:54:39.466Z,33.30
2022-12-07T04:55:39.438Z,33.50
2022-12-07T04:56:39.377Z,33.20
2022-12-07T04:57:39.336Z,33.00
2022-12-07T04:58:39.290Z,33.80
2022-12-07T04:59:43.922Z,32.00
2022-12-07T05:00:39.216Z,32.80
2022-12-07T05:01:39.195Z,33.70
2022-12-07T05:02:39.158Z,33.20
2022-12-07T05:03:39.072Z,32.00
2022-12-07T05:04:39.035Z,33.40
2022-12-07T05:05:38.981Z,32.20
2022-12-07T05:06:38.937Z,33.30
2022-12-07T05:07:38.917Z,33.00
2022-12-07T05:08:38.846Z,31.40
2022-12-07T05:09:38.820Z,31.60
2022-12-07T05:10:38.779Z,35.10
2022-12-07T05:11:38.714Z,32.90
2022-12-07T05:12:38.668Z,31.30
2022-12-07T05:13:38.630Z,31.40
2022-12-07T05:14:38.580Z,31.10
2022-12-07T05:15:38.539Z,30.00
2022-12-07T05:16:38.575Z,32.20
2022-12-07T05:17:38.451Z,31.40
2022-12-07T05:18:38.404Z,32.70
2022-12-07T05:19:38.370Z,31.70
2022-12-07T05:20:42.450Z,29.80
2022-12-07T05:21:38.274Z,30.30
2022-12-07T05:22:38.244Z,31.90
2022-12-07T05:23:38.183Z,30.40
2022-12-07T05:24:38.138Z,29.30
2022-12-07T05:25:38.099Z,30.70
2022-12-07T05:26:38.049Z,29.70
2022-12-07T05:27:38.008Z,31.60
2022-12-07T05:28:38.454Z,28.80
2022-12-07T05:29:37.930Z,27.50
2022-12-07T05:30:37.873Z,26.70
2022-12-07T05:31:37.859Z,28.30
2022-12-07T05:32:37.784Z,26.50
2022-12-07T05:33:37.745Z,25.20
2022-12-07T05:34:37.719Z,25.20
2022-12-07T05:35:37.652Z,25.20
2022-12-07T05:36:37.606Z,24.50
2022-12-07T05:37:37.570Z,27.60
2022-12-07T05:38:37.516Z,27.30
2022-12-07T05:39:37.475Z,25.40
2022-12-07T05:40:37.443Z,24.20
2022-12-07T05:41:37.387Z,24.90
2022-12-07T05:42:37.341Z,24.40
2022-12-07T05:43:37.298Z,24.80
2022-12-07T05:44:37.254Z,25.40
2022-12-07T05:45:37.295Z,23.60
2022-12-07T05:46:37.176Z,24.00
2022-12-07T05:47:37.123Z,23.20
2022-12-07T05:48:37.076Z,24.20
2022-12-07T05:49:37.036Z,23.10
2022-12-07T05:50:36.986Z,22.80
2022-12-07T05:51:36.959Z,22.40
2022-12-07T05:52:36.904Z,21.30
2022-12-07T05:53:36.860Z,21.50
2022-12-07T05:54:36.809Z,21.40
2022-12-07T05:55:36.768Z,20.70
2022-12-07T05:56:36.723Z,19.80
2022-12-07T05:57:36.699Z,20.90
2022-12-07T05:58:36.640Z,20.60
2022-12-07T05:59:36.593Z,20.30
2022-12-07T06:00:36.545Z,22.20
2022-12-07T06:01:36.504Z,20.80
2022-12-07T06:02:36.570Z,18.30
2022-12-07T06:03:36.473Z,19.20
2022-12-07T06:04:36.369Z,19.00
2022-12-07T06:05:36.328Z,20.50
2022-12-07T06:06:36.345Z,18.80
2022-12-07T06:07:36.277Z,18.30
2022-12-07T06:08:36.193Z,18.80
2022-12-07T06:09:36.164Z,21.60
2022-12-07T06:10:36.108Z,19.10
2022-12-07T06:11:36.066Z,18.30
2022-12-07T06:12:36.018Z,18.90
2022-12-07T06:13:35.977Z,18.20
2022-12-07T06:14:36.064Z,19.30
2022-12-07T06:15:35.891Z,20.80
2022-12-07T06:16:35.898Z,17.90
2022-12-07T06:17:35.803Z,20.70
2022-12-07T06:18:35.751Z,18.40
2022-12-07T06:19:35.716Z,18.60
2022-12-07T06:20:35.674Z,17.30
2022-12-07T06:21:35.623Z,18.00
2022-12-07T06:22:35.576Z,18.20
2022-12-07T06:23:35.547Z,21.30
2022-12-07T06:24:35.487Z,19.00
2022-12-07T06:25:35.453Z,19.00
2022-12-07T06:26:35.413Z,18.60
2022-12-07T06:27:35.358Z,18.20
2022-12-07T06:28:35.317Z,18.00
2022-12-07T06:29:35.268Z,18.80
2022-12-07T06:30:35.225Z,18.40
2022-12-07T06:31:35.283Z,19.60
2022-12-07T06:32:35.147Z,23.40
2022-12-07T06:33:35.094Z,21.50
2022-12-07T06:34:35.051Z,18.60
2022-12-07T06:35:35.004Z,18.80
2022-12-07T06:36:34.970Z,19.20
2022-12-07T06:37:34.920Z,22.20
2022-12-07T06:38:34.885Z,18.80
2022-12-07T06:39:34.844Z,20.00
2022-12-07T06:40:34.801Z,19.60
2022-12-07T06:41:34.736Z,21.00
2022-12-07T06:42:34.695Z,20.80
2022-12-07T06:43:34.647Z,20.80
2022-12-07T06:44:34.731Z,20.10
2022-12-07T06:45:34.662Z,20.70
2022-12-07T06:46:34.531Z,22.10
2022-12-07T06:47:42.414Z,22.10
2022-12-07T06:48:34.442Z,20.80
2022-12-07T06:49:34.382Z,20.30
2022-12-07T06:50:34.342Z,20.60
2022-12-07T06:51:34.295Z,21.50
2022-12-07T06:52:34.255Z,21.10
2022-12-07T06:53:34.219Z,21.10
2022-12-07T06:54:34.165Z,20.90
2022-12-07T06:55:34.119Z,21.50
2022-12-07T06:56:34.076Z,21.80
2022-12-07T06:57:34.032Z,20.90
2022-12-07T06:58:33.986Z,20.60
2022-12-07T06:59:33.956Z,22.90
2022-12-07T07:00:33.901Z,21.20
2022-12-07T07:01:33.905Z,20.50
2022-12-07T07:02:33.904Z,22.60
2022-12-07T07:03:33.761Z,23.70
2022-12-07T07:04:33.720Z,22.60
2022-12-07T07:05:33.686Z,21.80
2022-12-07T07:06:33.634Z,20.20
2022-12-07T07:07:51.746Z,23.10
2022-12-07T07:08:33.574Z,21.70
2022-12-07T07:09:33.498Z,21.70
2022-12-07T07:10:33.457Z,23.40
2022-12-07T07:11:33.420Z,20.50
2022-12-07T07:12:33.369Z,20.20
2022-12-07T07:13:33.326Z,22.40
2022-12-07T07:14:33.279Z,21.40
2022-12-07T07:15:33.231Z,23.80
2022-12-07T07:16:33.272Z,19.90
2022-12-07T07:17:33.158Z,23.40
2022-12-07T07:18:33.149Z,22.70
2022-12-07T07:19:33.056Z,21.70
2022-12-07T07:20:33.013Z,21.90
2022-12-07T07:21:32.970Z,21.00
2022-12-07T07:22:32.939Z,20.50
2022-12-07T07:23:32.876Z,21.30
2022-12-07T07:24:32.854Z,21.20
2022-12-07T07:25:32.793Z,19.80
2022-12-07T07:26:32.748Z,22.30
2022-12-07T07:27:32.700Z,21.20
2022-12-07T07:28:32.678Z,21.90
2022-12-07T07:29:32.611Z,22.60
2022-12-07T07:30:32.618Z,21.70
2022-12-07T07:31:32.529Z,22.00
2022-12-07T07:32:32.479Z,21.30
2022-12-07T07:33:32.443Z,22.90
2022-12-07T07:34:32.391Z,21.30
2022-12-07T07:35:32.347Z,21.20
2022-12-07T07:36:32.303Z,20.60
2022-12-07T07:37:32.257Z,21.10
2022-12-07T07:38:32.216Z,21.30
2022-12-07T07:39:32.181Z,23.60
2022-12-07T07:40:32.131Z,21.80
2022-12-07T07:41:32.079Z,21.40
2022-12-07T07:42:32.039Z,21.30
2022-12-07T07:43:32.117Z,21.30
2022-12-07T07:44:35.365Z,22.50
2022-12-07T07:45:31.913Z,21.80
2022-12-07T07:46:31.959Z,22.40
2022-12-07T07:47:31.816Z,21.10
2022-12-07T07:48:31.772Z,23.60
2022-12-07T07:49:31.728Z,25.30
2022-12-07T07:50:31.677Z,22.10
2022-12-07T07:51:31.651Z,21.70
2022-12-07T07:52:31.595Z,21.30
2022-12-07T07:53:31.559Z,20.20
2022-12-07T07:54:31.508Z,21.80
2022-12-07T07:55:31.482Z,20.90
2022-12-07T07:56:31.423Z,20.50
2022-12-07T07:57:31.380Z,20.30
2022-12-07T07:58:31.350Z,19.80
2022-12-07T07:59:31.290Z,21.70
2022-12-07T08:00:31.237Z,20.40
2022-12-07T08:01:31.219Z,22.80
2022-12-07T08:02:31.169Z,20.00
2022-12-07T08:03:31.109Z,20.00
2022-12-07T08:04:31.106Z,19.80
2022-12-07T08:05:31.013Z,20.20
2022-12-07T08:06:32.568Z,21.40
2022-12-07T08:07:30.929Z,21.00
2022-12-07T08:08:30.988Z,20.00
2022-12-07T08:09:30.839Z,19.70
2022-12-07T08:10:30.803Z,20.60
2022-12-07T08:11:30.748Z,19.10
2022-12-07T08:12:30.702Z,19.80
2022-12-07T08:13:31.648Z,19.50
2022-12-07T08:14:30.616Z,19.20
2022-12-07T08:15:30.662Z,19.00
2022-12-07T08:16:30.635Z,18.30
2022-12-07T08:17:30.492Z,18.80
2022-12-07T08:18:30.446Z,17.80
2022-12-07T08:19:30.397Z,18.10
2022-12-07T08:20:30.349Z,17.30
2022-12-07T08:21:30.306Z,20.30
2022-12-07T08:22:30.271Z,20.90
2022-12-07T08:23:37.645Z,19.50
2022-12-07T08:24:30.185Z,17.60
2022-12-07T08:25:39.506Z,20.10
2022-12-07T08:26:30.083Z,16.90
2022-12-07T08:27:30.042Z,17.00
2022-12-07T08:28:30.013Z,17.30
2022-12-07T08:29:29.965Z,18.40
2022-12-07T08:30:29.915Z,17.40
2022-12-07T08:31:29.894Z,20.80
2022-12-07T08:32:29.835Z,16.80
2022-12-07T08:33:29.774Z,17.70
2022-12-07T08:34:29.739Z,16.80
2022-12-07T08:35:29.688Z,17.20
2022-12-07T08:36:29.646Z,17.20
2022-12-07T08:37:29.596Z,15.60
2022-12-07T08:38:31.936Z,16.10
2022-12-07T08:39:32.068Z,15.00
2022-12-07T08:40:29.477Z,14.70
2022-12-07T08:41:29.426Z,17.50
2022-12-07T08:42:29.386Z,17.00
2022-12-07T08:43:29.329Z,16.40
2022-12-07T08:44:29.294Z,14.70
2022-12-07T08:45:29.252Z,15.20
2022-12-07T08:46:29.259Z,16.40
2022-12-07T08:47:29.237Z,16.00
2022-12-07T08:48:29.114Z,16.50
2022-12-07T08:49:29.121Z,13.80
2022-12-07T08:50:29.027Z,17.70
2022-12-07T08:51:28.978Z,16.00
2022-12-07T08:52:28.947Z,17.00
2022-12-07T08:53:28.901Z,14.70
2022-12-07T08:54:28.853Z,15.20
2022-12-07T08:55:28.809Z,15.10
2022-12-07T08:56:28.757Z,16.90
2022-12-07T08:57:28.732Z,15.10
2022-12-07T08:58:28.683Z,13.90
2022-12-07T08:59:29.552Z,14.50
2022-12-07T09:00:28.585Z,13.90
2022-12-07T09:01:28.761Z,13.90
2022-12-07T09:03:51.397Z,12.30
2022-12-07T09:04:49.443Z,10.20
2022-12-07T09:05:28.426Z,13.20
2022-12-07T09:06:28.481Z,13.60
2022-12-07T09:07:28.279Z,11.80
2022-12-07T09:08:28.298Z,11.30
2022-12-07T09:09:28.188Z,12.40
2022-12-07T09:10:28.161Z,12.70
2022-12-07T09:11:28.955Z,11.30
2022-12-07T09:12:28.086Z,13.80
2022-12-07T09:13:28.021Z,14.10
2022-12-07T09:14:27.976Z,10.50
2022-12-07T09:15:27.929Z,13.40
2022-12-07T09:16:27.918Z,11.70
2022-12-07T09:17:27.846Z,14.70
2022-12-07T09:18:27.816Z,13.10
2022-12-07T09:19:27.754Z,10.30
2022-12-07T09:20:28.388Z,10.30
2022-12-07T09:21:27.673Z,9.90
2022-12-07T09:22:27.628Z,9.80
2022-12-07T09:23:27.582Z,10.80
2022-12-07T09:24:27.553Z,9.80
2022-12-07T09:25:27.494Z,8.60
2022-12-07T09:26:27.455Z,7.00
2022-12-07T09:27:27.420Z,9.70
2022-12-07T09:28:27.372Z,7.30
2022-12-07T09:29:27.328Z,6.60
2022-12-07T09:30:27.309Z,8.00
2022-12-07T09:31:27.475Z,9.30
2022-12-07T09:32:27.304Z,8.60
2022-12-07T09:33:27.162Z,8.40
2022-12-07T09:34:27.139Z,8.40
2022-12-07T09:35:27.084Z,6.50
2022-12-07T09:36:27.049Z,8.70
2022-12-07T09:37:27.050Z,8.10
2022-12-07T09:38:26.965Z,6.70
2022-12-07T09:39:26.944Z,8.10
2022-12-07T09:40:26.890Z,8.80
2022-12-07T09:41:26.848Z,9.20
2022-12-07T09:42:26.891Z,7.70
2022-12-07T09:43:26.750Z,10.20
2022-12-07T09:44:26.714Z,8.60
2022-12-07T09:45:26.670Z,7.00
2022-12-07T09:46:26.702Z,7.20
2022-12-07T09:47:26.587Z,11.10
2022-12-07T09:48:26.550Z,8.90
2022-12-07T09:49:26.511Z,8.80
2022-12-07T09:50:26.471Z,9.70
2022-12-07T09:51:26.429Z,7.10
2022-12-07T09:52:26.404Z,8.00
2022-12-07T09:53:26.345Z,9.70
2022-12-07T09:54:26.302Z,9.10
2022-12-07T09:55:26.260Z,8.70
2022-12-07T09:56:26.222Z,10.70
2022-12-07T09:57:26.183Z,7.90
2022-12-07T09:58:26.152Z,8.50
2022-12-07T09:59:26.098Z,9.40
2022-12-07T10:00:26.056Z,8.50
2022-12-07T10:01:26.052Z,9.20
2022-12-07T10:02:25.976Z,10.80
2022-12-07T10:03:25.931Z,10.10
2022-12-07T10:04:25.931Z,8.20
2022-12-07T10:05:25.925Z,9.50
2022-12-07T10:06:25.951Z,10.10
2022-12-07T10:07:25.769Z,10.80
2022-12-07T10:08:25.769Z,9.40
2022-12-07T10:09:25.694Z,9.10
2022-12-07T10:10:25.649Z,9.60
2022-12-07T10:11:25.597Z,9.30
2022-12-07T10:12:25.569Z,9.50
2022-12-07T10:13:25.519Z,11.00
2022-12-07T10:14:44.275Z,9.90
2022-12-07T10:15:25.552Z,10.90
2022-12-07T10:16:25.474Z,12.70
2022-12-07T10:17:25.345Z,10.30
2022-12-07T10:18:25.310Z,10.70
2022-12-07T10:19:25.262Z,8.30
2022-12-07T10:20:25.222Z,10.80
2022-12-07T10:21:25.206Z,13.00
2022-12-07T10:22:30.369Z,11.30
2022-12-07T10:23:25.096Z,11.70
2022-12-07T10:24:25.061Z,10.60
2022-12-07T10:25:25.015Z,10.20
2022-12-07T10:26:24.969Z,9.50
2022-12-07T10:27:24.927Z,10.80
2022-12-07T10:28:24.898Z,10.60
2022-12-07T10:29:24.846Z,11.00
2022-12-07T10:30:24.805Z,11.90
2022-12-07T10:31:24.870Z,11.30
2022-12-07T10:32:24.719Z,8.30
2022-12-07T10:33:24.681Z,10.80
2022-12-07T10:34:24.655Z,9.80
2022-12-07T10:35:24.597Z,13.20
2022-12-07T10:36:24.558Z,9.00
2022-12-07T10:37:24.525Z,11.60
2022-12-07T10:38:24.491Z,10.30
2022-12-07T10:39:24.432Z,8.70
2022-12-07T10:40:24.387Z,12.20
2022-12-07T10:41:24.341Z,11.20
2022-12-07T10:42:24.323Z,10.00
2022-12-07T10:43:24.248Z,11.70
2022-12-07T10:44:24.223Z,10.60
2022-12-07T10:45:24.259Z,9.10
2022-12-07T10:46:24.289Z,11.20
2022-12-07T10:47:24.150Z,9.70
2022-12-07T10:48:24.058Z,11.10
2022-12-07T10:49:24.002Z,10.60
2022-12-07T10:50:23.956Z,10.70
2022-12-07T10:51:23.939Z,10.30
2022-12-07T10:52:23.868Z,8.60
2022-12-07T10:53:23.830Z,9.20
2022-12-07T10:54:23.784Z,10.00
2022-12-07T10:55:23.763Z,12.00
2022-12-07T10:56:23.703Z,8.80
2022-12-07T10:57:23.683Z,8.50
2022-12-07T10:58:23.617Z,11.10
2022-12-07T10:59:23.587Z,12.10
2022-12-07T11:00:23.541Z,9.30
2022-12-07T11:01:23.555Z,10.90
2022-12-07T11:02:23.518Z,9.60
2022-12-07T11:03:23.414Z,9.80
2022-12-07T11:04:23.380Z,10.90
2022-12-07T11:05:23.322Z,11.90
2022-12-07T11:06:23.276Z,9.40
2022-12-07T11:07:23.236Z,12.90
2022-12-07T11:08:23.346Z,10.70
2022-12-07T11:09:44.990Z,12.00
2022-12-07T11:10:23.465Z,10.10
2022-12-07T11:11:23.074Z,10.20
2022-12-07T11:12:23.028Z,11.00
2022-12-07T11:13:28.074Z,10.30
2022-12-07T11:14:22.941Z,11.30
2022-12-07T11:15:22.902Z,10.40
2022-12-07T11:16:22.959Z,11.00
2022-12-07T11:17:22.817Z,8.40
2022-12-07T11:18:22.782Z,10.40
2022-12-07T11:19:26.673Z,10.50
2022-12-07T11:20:22.704Z,11.00
2022-12-07T11:21:22.658Z,12.00
2022-12-07T11:22:22.605Z,10.80
2022-12-07T11:23:22.573Z,10.70
2022-12-07T11:24:22.538Z,11.30
2022-12-07T11:25:27.246Z,11.60
2022-12-07T11:26:22.431Z,10.10
2022-12-07T11:27:22.391Z,10.20
2022-12-07T11:28:22.357Z,9.00
2022-12-07T11:29:22.357Z,10.90
2022-12-07T11:30:22.280Z,10.70
2022-12-07T11:31:25.868Z,7.80
2022-12-07T11:32:22.182Z,8.30
2022-12-07T11:33:22.146Z,10.80
2022-12-07T11:34:22.129Z,9.40
2022-12-07T11:35:22.065Z,9.20
2022-12-07T11:36:22.035Z,7.30
2022-12-07T11:37:21.981Z,8.90
2022-12-07T11:38:24.661Z,8.70
2022-12-07T11:39:21.898Z,6.90
2022-12-07T11:40:21.851Z,8.80
2022-12-07T11:41:21.836Z,8.30
2022-12-07T11:42:21.782Z,7.30
2022-12-07T11:43:21.730Z,8.50
2022-12-07T11:44:27.208Z,6.80
2022-12-07T11:45:21.645Z,10.20
2022-12-07T11:46:21.656Z,7.90
2022-12-07T11:47:21.572Z,8.40
2022-12-07T11:48:21.523Z,7.70
2022-12-07T11:49:21.487Z,9.50
2022-12-07T11:50:22.000Z,7.70
2022-12-07T11:51:21.405Z,9.40
2022-12-07T11:52:21.375Z,8.50
2022-12-07T11:53:21.325Z,7.80
2022-12-07T11:54:21.279Z,7.40
2022-12-07T11:55:21.247Z,9.10
2022-12-07T11:56:21.197Z,8.90
2022-12-07T11:57:21.156Z,8.00
2022-12-07T11:58:21.127Z,9.10
2022-12-07T11:59:21.077Z,7.70
2022-12-07T12:00:21.056Z,7.80
2022-12-07T12:01:21.007Z,7.30
2022-12-07T12:02:20.976Z,9.20
2022-12-07T12:03:20.958Z,7.00
2022-12-07T12:04:20.884Z,8.70
2022-12-07T12:05:20.834Z,8.20
2022-12-07T12:06:20.805Z,8.40
2022-12-07T12:09:53.439Z,10.30
2022-12-07T12:10:20.641Z,9.10
2022-12-07T12:11:20.600Z,11.20
2022-12-07T12:14:36.636Z,8.80
2022-12-07T12:15:20.466Z,6.50
2022-12-07T12:16:20.442Z,8.40
2022-12-07T12:17:20.335Z,10.20
2022-12-07T12:18:20.292Z,7.70
2022-12-07T12:19:20.271Z,7.40
2022-12-07T12:20:20.284Z,9.10
2022-12-07T12:21:20.224Z,9.10
2022-12-07T12:22:20.127Z,8.30
2022-12-07T12:23:20.090Z,9.90
2022-12-07T12:24:20.052Z,10.00
2022-12-07T12:25:20.005Z,7.50
2022-12-07T12:26:19.992Z,8.60
2022-12-07T12:27:19.944Z,7.50
2022-12-07T12:28:19.878Z,12.10
2022-12-07T12:29:19.838Z,9.50
2022-12-07T12:30:19.802Z,9.70
2022-12-07T12:31:19.775Z,8.90
2022-12-07T12:32:19.756Z,8.50
2022-12-07T12:33:19.676Z,10.30
2022-12-07T12:34:19.628Z,10.10
2022-12-07T12:35:19.763Z,8.80
2022-12-07T12:36:19.617Z,8.40
2022-12-07T12:37:19.527Z,9.50
2022-12-07T12:38:19.492Z,10.50
2022-12-07T12:39:20.227Z,9.40
2022-12-07T12:40:19.408Z,9.80
2022-12-07T12:41:19.352Z,8.10
2022-12-07T12:42:19.297Z,8.80
2022-12-07T12:43:19.295Z,8.50
2022-12-07T12:44:19.226Z,11.40
2022-12-07T12:45:19.241Z,8.80
2022-12-07T12:46:19.192Z,9.40
2022-12-07T12:47:19.143Z,7.70
2022-12-07T12:48:19.072Z,10.10
2022-12-07T12:49:19.071Z,7.50
2022-12-07T12:50:18.972Z,7.20
2022-12-07T12:51:18.966Z,7.80
2022-12-07T12:52:18.932Z,8.80
2022-12-07T12:53:18.853Z,7.60
2022-12-07T12:54:18.815Z,7.50
2022-12-07T12:55:18.812Z,8.20
2022-12-07T12:56:18.781Z,7.60
2022-12-07T12:57:18.698Z,8.00
2022-12-07T12:58:18.663Z,10.40
2022-12-07T12:59:18.676Z,10.60
2022-12-07T13:00:18.569Z,8.30
2022-12-07T13:01:18.627Z,7.90
2022-12-07T13:02:18.545Z,8.90